sensor_id;sensor_type;location;lat;lon;timestamp;pressure;altitude;pressure_sealevel;temperature;humidity
72285;BME280;60220;53.552;10.092;2024-01-30T00:01:38;102540.03;;;6.06;100.00
72285;BME280;60220;53.552;10.092;2024-01-30T00:04:05;102536.47;;;6.02;100.00
72285;BME280;60220;53.552;10.092;2024-01-30T00:06:33;102543.91;;;5.92;100.00
72285;BME280;60220;53.552;10.092;2024-01-30T00:09:02;102542.66;;;6.06;100.00
72285;BME280;60220;53.552;10.092;2024-01-30T00:11:30;102546.44;;;6.41;100.00
72285;BME280;60220;53.552;10.092;2024-01-30T00:13:57;102544.94;;;6.49;100.00
72285;BME280;60220;53.552;10.092;2024-01-30T00:16:24;102544.81;;;6.44;100.00
72285;BME280;60220;53.552;10.092;2024-01-30T00:18:51;102546.88;;;6.55;100.00
72285;BME280;60220;53.552;10.092;2024-01-30T00:21:18;102543.81;;;6.41;100.00
72285;BME280;60220;53.552;10.092;2024-01-30T00:23:46;102541.53;;;6.25;100.00
72285;BME280;60220;53.552;10.092;2024-01-30T00:26:15;102537.53;;;6.09;100.00
72285;BME280;60220;53.552;10.092;2024-01-30T00:28:42;102538.25;;;6.30;100.00
72285;BME280;60220;53.552;10.092;2024-01-30T00:31:09;102535.69;;;6.59;100.00
72285;BME280;60220;53.552;10.092;2024-01-30T00:33:37;102534.88;;;6.88;100.00
72285;BME280;60220;53.552;10.092;2024-01-30T00:36:05;102526.34;;;6.38;100.00
72285;BME280;60220;53.552;10.092;2024-01-30T00:38:31;102524.56;;;6.11;100.00
72285;BME280;60220;53.552;10.092;2024-01-30T00:40:59;102529.56;;;5.81;100.00
72285;BME280;60220;53.552;10.092;2024-01-30T00:43:27;102526.38;;;5.64;100.00
72285;BME280;60220;53.552;10.092;2024-01-30T00:45:56;102523.09;;;5.70;100.00
72285;BME280;60220;53.552;10.092;2024-01-30T00:48:23;102527.41;;;5.93;100.00
72285;BME280;60220;53.552;10.092;2024-01-30T00:50:50;102519.44;;;6.14;100.00
72285;BME280;60220;53.552;10.092;2024-01-30T00:53:18;102514.88;;;5.83;100.00
72285;BME280;60220;53.552;10.092;2024-01-30T00:55:47;102514.16;;;5.63;100.00
72285;BME280;60220;53.552;10.092;2024-01-30T00:58:15;102516.16;;;5.94;100.00
72285;BME280;60220;53.552;10.092;2024-01-30T01:00:42;102519.97;;;5.80;100.00
72285;BME280;60220;53.552;10.092;2024-01-30T01:03:08;102516.31;;;5.75;100.00
72285;BME280;60220;53.552;10.092;2024-01-30T01:05:35;102519.16;;;5.81;100.00
72285;BME280;60220;53.552;10.092;2024-01-30T01:08:01;102525.69;;;5.70;100.00
72285;BME280;60220;53.552;10.092;2024-01-30T01:10:28;102525.44;;;6.11;100.00
72285;BME280;60220;53.552;10.092;2024-01-30T01:12:55;102524.63;;;6.39;100.00
72285;BME280;60220;53.552;10.092;2024-01-30T01:15:23;102522.59;;;6.30;100.00
72285;BME280;60220;53.552;10.092;2024-01-30T01:17:51;102528.78;;;6.07;100.00
72285;BME280;60220;53.552;10.092;2024-01-30T01:20:18;102523.72;;;6.12;100.00
72285;BME280;60220;53.552;10.092;2024-01-30T01:22:45;102525.44;;;6.11;100.00
72285;BME280;60220;53.552;10.092;2024-01-30T01:25:14;102529.69;;;6.08;100.00
72285;BME280;60220;53.552;10.092;2024-01-30T01:27:40;102524.25;;;6.28;100.00
72285;BME280;60220;53.552;10.092;2024-01-30T01:30:09;102534.91;;;6.09;100.00
72285;BME280;60220;53.552;10.092;2024-01-30T01:32:38;102528.78;;;5.83;100.00
72285;BME280;60220;53.552;10.092;2024-01-30T01:35:10;102523.00;;;5.67;100.00
72285;BME280;60220;53.552;10.092;2024-01-30T01:37:36;102529.84;;;5.88;100.00
72285;BME280;60220;53.552;10.092;2024-01-30T01:40:04;102523.19;;;5.47;100.00
72285;BME280;60220;53.552;10.092;2024-01-30T01:42:31;102532.50;;;5.18;100.00
72285;BME280;60220;53.552;10.092;2024-01-30T01:44:58;102522.81;;;5.38;100.00
72285;BME280;60220;53.552;10.092;2024-01-30T01:47:27;102523.59;;;5.36;100.00
72285;BME280;60220;53.552;10.092;2024-01-30T01:49:55;102527.59;;;5.26;100.00
72285;BME280;60220;53.552;10.092;2024-01-30T01:52:22;102518.84;;;5.48;100.00
72285;BME280;60220;53.552;10.092;2024-01-30T01:54:48;102506.50;;;5.42;100.00
72285;BME280;60220;53.552;10.092;2024-01-30T01:57:15;102514.09;;;5.36;100.00
72285;BME280;60220;53.552;10.092;2024-01-30T01:59:44;102513.19;;;5.85;100.00
72285;BME280;60220;53.552;10.092;2024-01-30T02:02:11;102506.47;;;6.15;100.00
72285;BME280;60220;53.552;10.092;2024-01-30T02:04:39;102503.31;;;6.25;100.00
72285;BME280;60220;53.552;10.092;2024-01-30T02:07:07;102510.94;;;5.94;100.00
72285;BME280;60220;53.552;10.092;2024-01-30T02:09:33;102502.44;;;5.99;100.00
72285;BME280;60220;53.552;10.092;2024-01-30T02:12:03;102493.28;;;6.11;100.00
72285;BME280;60220;53.552;10.092;2024-01-30T02:14:30;102486.84;;;5.76;100.00
72285;BME280;60220;53.552;10.092;2024-01-30T02:16:56;102482.59;;;5.79;100.00
72285;BME280;60220;53.552;10.092;2024-01-30T02:19:25;102473.22;;;5.59;100.00
72285;BME280;60220;53.552;10.092;2024-01-30T02:21:53;102481.06;;;5.35;100.00
72285;BME280;60220;53.552;10.092;2024-01-30T02:24:20;102479.50;;;5.40;100.00
72285;BME280;60220;53.552;10.092;2024-01-30T02:26:47;102478.50;;;5.60;100.00
72285;BME280;60220;53.552;10.092;2024-01-30T02:29:13;102476.13;;;5.92;100.00
72285;BME280;60220;53.552;10.092;2024-01-30T02:31:40;102473.00;;;5.78;100.00
72285;BME280;60220;53.552;10.092;2024-01-30T02:34:07;102470.66;;;6.38;100.00
72285;BME280;60220;53.552;10.092;2024-01-30T02:36:33;102467.13;;;6.08;100.00
72285;BME280;60220;53.552;10.092;2024-01-30T02:39:03;102471.97;;;6.24;100.00
72285;BME280;60220;53.552;10.092;2024-01-30T02:41:30;102469.88;;;6.12;100.00
72285;BME280;60220;53.552;10.092;2024-01-30T02:43:57;102468.81;;;5.82;100.00
72285;BME280;60220;53.552;10.092;2024-01-30T02:46:23;102471.22;;;6.01;100.00
72285;BME280;60220;53.552;10.092;2024-01-30T02:48:50;102464.13;;;6.24;100.00
72285;BME280;60220;53.552;10.092;2024-01-30T02:51:17;102461.19;;;6.13;100.00
72285;BME280;60220;53.552;10.092;2024-01-30T02:53:46;102468.00;;;5.84;100.00
72285;BME280;60220;53.552;10.092;2024-01-30T02:56:14;102465.56;;;5.87;100.00
72285;BME280;60220;53.552;10.092;2024-01-30T02:58:43;102462.66;;;6.05;100.00
72285;BME280;60220;53.552;10.092;2024-01-30T03:01:12;102458.56;;;6.13;100.00
72285;BME280;60220;53.552;10.092;2024-01-30T03:03:39;102459.06;;;6.28;100.00
72285;BME280;60220;53.552;10.092;2024-01-30T03:06:08;102454.81;;;6.30;100.00
72285;BME280;60220;53.552;10.092;2024-01-30T03:08:37;102448.84;;;5.82;100.00
72285;BME280;60220;53.552;10.092;2024-01-30T03:11:03;102452.72;;;6.20;100.00
72285;BME280;60220;53.552;10.092;2024-01-30T03:13:34;102450.06;;;6.45;100.00
72285;BME280;60220;53.552;10.092;2024-01-30T03:16:03;102447.38;;;6.71;100.00
72285;BME280;60220;53.552;10.092;2024-01-30T03:18:30;102450.34;;;6.55;100.00
72285;BME280;60220;53.552;10.092;2024-01-30T03:20:56;102446.78;;;6.53;100.00
72285;BME280;60220;53.552;10.092;2024-01-30T03:23:25;102437.94;;;7.06;100.00
72285;BME280;60220;53.552;10.092;2024-01-30T03:25:52;102446.66;;;6.76;100.00
72285;BME280;60220;53.552;10.092;2024-01-30T03:28:18;102443.47;;;6.03;100.00
72285;BME280;60220;53.552;10.092;2024-01-30T03:30:46;102439.41;;;5.60;100.00
72285;BME280;60220;53.552;10.092;2024-01-30T03:33:13;102440.06;;;5.06;100.00
72285;BME280;60220;53.552;10.092;2024-01-30T03:35:40;102440.16;;;5.56;100.00
72285;BME280;60220;53.552;10.092;2024-01-30T03:38:09;102441.41;;;5.68;100.00
72285;BME280;60220;53.552;10.092;2024-01-30T03:40:35;102446.59;;;5.42;100.00
72285;BME280;60220;53.552;10.092;2024-01-30T03:43:02;102440.03;;;5.53;100.00
72285;BME280;60220;53.552;10.092;2024-01-30T03:45:30;102449.63;;;6.05;100.00
72285;BME280;60220;53.552;10.092;2024-01-30T03:48:00;102445.63;;;5.89;100.00
72285;BME280;60220;53.552;10.092;2024-01-30T03:50:29;102431.09;;;5.22;100.00
72285;BME280;60220;53.552;10.092;2024-01-30T03:52:56;102434.78;;;5.03;100.00
72285;BME280;60220;53.552;10.092;2024-01-30T03:55:23;102433.75;;;5.47;100.00
72285;BME280;60220;53.552;10.092;2024-01-30T03:57:49;102432.28;;;5.55;100.00
72285;BME280;60220;53.552;10.092;2024-01-30T04:00:16;102428.66;;;5.26;100.00
72285;BME280;60220;53.552;10.092;2024-01-30T04:02:43;102419.47;;;5.12;100.00
72285;BME280;60220;53.552;10.092;2024-01-30T04:05:12;102416.72;;;5.07;100.00
72285;BME280;60220;53.552;10.092;2024-01-30T04:07:39;102409.97;;;5.12;100.00
72285;BME280;60220;53.552;10.092;2024-01-30T04:10:09;102415.31;;;5.17;100.00
72285;BME280;60220;53.552;10.092;2024-01-30T04:12:36;102416.38;;;5.22;100.00
72285;BME280;60220;53.552;10.092;2024-01-30T04:15:03;102417.91;;;5.41;100.00
72285;BME280;60220;53.552;10.092;2024-01-30T04:17:29;102423.34;;;5.74;100.00
72285;BME280;60220;53.552;10.092;2024-01-30T04:19:56;102412.31;;;6.06;100.00
72285;BME280;60220;53.552;10.092;2024-01-30T04:22:24;102416.44;;;5.99;100.00
72285;BME280;60220;53.552;10.092;2024-01-30T04:24:51;102420.06;;;5.79;100.00
72285;BME280;60220;53.552;10.092;2024-01-30T04:27:17;102426.75;;;6.23;100.00
72285;BME280;60220;53.552;10.092;2024-01-30T04:29:44;102432.19;;;6.02;100.00
72285;BME280;60220;53.552;10.092;2024-01-30T04:32:11;102435.41;;;5.95;100.00
72285;BME280;60220;53.552;10.092;2024-01-30T04:34:37;102433.56;;;5.93;100.00
72285;BME280;60220;53.552;10.092;2024-01-30T04:37:04;102432.34;;;5.56;100.00
72285;BME280;60220;53.552;10.092;2024-01-30T04:39:32;102440.56;;;5.94;100.00
72285;BME280;60220;53.552;10.092;2024-01-30T04:41:59;102439.72;;;5.70;100.00
72285;BME280;60220;53.552;10.092;2024-01-30T04:44:28;102441.94;;;5.57;100.00
72285;BME280;60220;53.552;10.092;2024-01-30T04:46:55;102435.06;;;5.36;100.00
72285;BME280;60220;53.552;10.092;2024-01-30T04:49:24;102442.53;;;5.50;100.00
72285;BME280;60220;53.552;10.092;2024-01-30T04:51:50;102432.69;;;5.42;100.00
72285;BME280;60220;53.552;10.092;2024-01-30T04:54:17;102433.47;;;5.39;100.00
72285;BME280;60220;53.552;10.092;2024-01-30T04:56:47;102429.28;;;4.95;100.00
72285;BME280;60220;53.552;10.092;2024-01-30T04:59:14;102430.53;;;5.30;100.00
72285;BME280;60220;53.552;10.092;2024-01-30T05:01:40;102436.22;;;5.44;100.00
72285;BME280;60220;53.552;10.092;2024-01-30T05:04:07;102436.50;;;5.51;100.00
72285;BME280;60220;53.552;10.092;2024-01-30T05:06:37;102434.41;;;5.41;100.00
72285;BME280;60220;53.552;10.092;2024-01-30T05:09:03;102432.63;;;5.40;100.00
72285;BME280;60220;53.552;10.092;2024-01-30T05:11:30;102427.84;;;5.78;100.00
72285;BME280;60220;53.552;10.092;2024-01-30T05:13:58;102428.63;;;5.75;100.00
72285;BME280;60220;53.552;10.092;2024-01-30T05:16:27;102426.69;;;5.70;100.00
72285;BME280;60220;53.552;10.092;2024-01-30T05:18:54;102421.50;;;5.95;100.00
72285;BME280;60220;53.552;10.092;2024-01-30T05:21:20;102418.47;;;5.83;100.00
72285;BME280;60220;53.552;10.092;2024-01-30T05:23:47;102418.13;;;5.74;100.00
72285;BME280;60220;53.552;10.092;2024-01-30T05:26:16;102417.97;;;5.68;100.00
72285;BME280;60220;53.552;10.092;2024-01-30T05:28:43;102425.03;;;5.72;100.00
72285;BME280;60220;53.552;10.092;2024-01-30T05:31:11;102424.06;;;5.43;100.00
72285;BME280;60220;53.552;10.092;2024-01-30T05:33:38;102434.81;;;5.53;100.00
72285;BME280;60220;53.552;10.092;2024-01-30T05:36:07;102419.09;;;6.01;100.00
72285;BME280;60220;53.552;10.092;2024-01-30T05:38:34;102420.97;;;5.80;100.00
72285;BME280;60220;53.552;10.092;2024-01-30T05:41:01;102420.56;;;5.68;100.00
72285;BME280;60220;53.552;10.092;2024-01-30T05:43:30;102419.91;;;5.75;100.00
72285;BME280;60220;53.552;10.092;2024-01-30T05:46:00;102423.34;;;5.74;100.00
72285;BME280;60220;53.552;10.092;2024-01-30T05:48:30;102415.53;;;5.74;100.00
72285;BME280;60220;53.552;10.092;2024-01-30T05:50:59;102416.72;;;5.56;100.00
72285;BME280;60220;53.552;10.092;2024-01-30T05:53:26;102411.69;;;5.88;100.00
72285;BME280;60220;53.552;10.092;2024-01-30T05:55:53;102408.38;;;5.67;100.00
72285;BME280;60220;53.552;10.092;2024-01-30T05:58:19;102402.53;;;5.48;100.00
72285;BME280;60220;53.552;10.092;2024-01-30T06:00:47;102413.34;;;5.35;100.00
72285;BME280;60220;53.552;10.092;2024-01-30T06:03:13;102411.81;;;5.40;100.00
72285;BME280;60220;53.552;10.092;2024-01-30T06:05:41;102407.44;;;5.90;100.00
72285;BME280;60220;53.552;10.092;2024-01-30T06:08:08;102396.25;;;5.43;100.00
72285;BME280;60220;53.552;10.092;2024-01-30T06:10:34;102405.63;;;5.38;100.00
72285;BME280;60220;53.552;10.092;2024-01-30T06:13:01;102400.63;;;5.19;100.00
72285;BME280;60220;53.552;10.092;2024-01-30T06:15:30;102405.09;;;5.47;100.00
72285;BME280;60220;53.552;10.092;2024-01-30T06:17:58;102392.00;;;5.20;100.00
72285;BME280;60220;53.552;10.092;2024-01-30T06:20:27;102399.91;;;5.74;100.00
72285;BME280;60220;53.552;10.092;2024-01-30T06:22:55;102384.25;;;5.72;100.00
72285;BME280;60220;53.552;10.092;2024-01-30T06:25:21;102393.31;;;5.33;100.00
72285;BME280;60220;53.552;10.092;2024-01-30T06:27:48;102383.47;;;5.49;100.00
72285;BME280;60220;53.552;10.092;2024-01-30T06:30:15;102376.16;;;5.64;100.00
72285;BME280;60220;53.552;10.092;2024-01-30T06:32:41;102379.78;;;5.43;100.00
72285;BME280;60220;53.552;10.092;2024-01-30T06:35:08;102378.03;;;5.69;100.00
72285;BME280;60220;53.552;10.092;2024-01-30T06:37:35;102378.50;;;5.82;100.00
72285;BME280;60220;53.552;10.092;2024-01-30T06:40:05;102377.88;;;5.64;100.00
72285;BME280;60220;53.552;10.092;2024-01-30T06:42:31;102373.88;;;5.48;100.00
72285;BME280;60220;53.552;10.092;2024-01-30T06:44:58;102372.69;;;5.39;100.00
72285;BME280;60220;53.552;10.092;2024-01-30T06:47:27;102376.81;;;5.57;100.00
72285;BME280;60220;53.552;10.092;2024-01-30T06:49:54;102370.81;;;5.60;100.00
72285;BME280;60220;53.552;10.092;2024-01-30T06:52:20;102377.19;;;5.43;100.00
72285;BME280;60220;53.552;10.092;2024-01-30T06:54:47;102380.97;;;5.52;100.00
72285;BME280;60220;53.552;10.092;2024-01-30T06:57:15;102375.41;;;5.69;100.00
72285;BME280;60220;53.552;10.092;2024-01-30T06:59:44;102377.47;;;6.04;100.00
72285;BME280;60220;53.552;10.092;2024-01-30T07:02:10;102373.03;;;6.58;100.00
72285;BME280;60220;53.552;10.092;2024-01-30T07:04:37;102371.34;;;6.30;100.00
72285;BME280;60220;53.552;10.092;2024-01-30T07:07:04;102380.69;;;5.95;100.00
72285;BME280;60220;53.552;10.092;2024-01-30T07:09:37;102369.78;;;5.82;100.00
72285;BME280;60220;53.552;10.092;2024-01-30T07:12:04;102370.03;;;5.37;100.00
72285;BME280;60220;53.552;10.092;2024-01-30T07:14:35;102376.47;;;5.74;100.00
72285;BME280;60220;53.552;10.092;2024-01-30T07:17:02;102371.16;;;5.96;100.00
72285;BME280;60220;53.552;10.092;2024-01-30T07:19:28;102367.06;;;5.79;100.00
72285;BME280;60220;53.552;10.092;2024-01-30T07:21:55;102364.41;;;5.50;100.00
72285;BME280;60220;53.552;10.092;2024-01-30T07:24:21;102370.13;;;5.91;100.00
72285;BME280;60220;53.552;10.092;2024-01-30T07:26:48;102363.13;;;6.17;100.00
72285;BME280;60220;53.552;10.092;2024-01-30T07:29:17;102369.50;;;6.26;100.00
72285;BME280;60220;53.552;10.092;2024-01-30T07:31:45;102360.91;;;6.02;100.00
72285;BME280;60220;53.552;10.092;2024-01-30T07:34:12;102363.69;;;6.08;100.00
72285;BME280;60220;53.552;10.092;2024-01-30T07:36:38;102361.06;;;6.07;100.00
72285;BME280;60220;53.552;10.092;2024-01-30T07:39:05;102361.22;;;5.86;100.00
72285;BME280;60220;53.552;10.092;2024-01-30T07:41:32;102361.16;;;5.83;100.00
72285;BME280;60220;53.552;10.092;2024-01-30T07:43:58;102370.75;;;5.58;100.00
72285;BME280;60220;53.552;10.092;2024-01-30T07:46:25;102366.38;;;5.57;100.00
72285;BME280;60220;53.552;10.092;2024-01-30T07:48:53;102373.50;;;5.63;100.00
72285;BME280;60220;53.552;10.092;2024-01-30T07:51:21;102371.19;;;5.45;100.00
72285;BME280;60220;53.552;10.092;2024-01-30T07:53:47;102373.16;;;5.27;100.00
72285;BME280;60220;53.552;10.092;2024-01-30T07:56:14;102381.59;;;5.20;100.00
72285;BME280;60220;53.552;10.092;2024-01-30T07:58:41;102374.78;;;5.00;100.00
72285;BME280;60220;53.552;10.092;2024-01-30T08:01:08;102380.47;;;5.37;100.00
72285;BME280;60220;53.552;10.092;2024-01-30T08:03:34;102377.72;;;5.59;100.00
72285;BME280;60220;53.552;10.092;2024-01-30T08:06:03;102374.88;;;5.52;100.00
72285;BME280;60220;53.552;10.092;2024-01-30T08:08:30;102380.47;;;5.89;100.00
72285;BME280;60220;53.552;10.092;2024-01-30T08:10:59;102363.41;;;5.99;100.00
72285;BME280;60220;53.552;10.092;2024-01-30T08:13:28;102358.47;;;6.07;100.00
72285;BME280;60220;53.552;10.092;2024-01-30T08:15:54;102366.56;;;5.89;100.00
72285;BME280;60220;53.552;10.092;2024-01-30T08:18:21;102362.22;;;5.62;100.00
72285;BME280;60220;53.552;10.092;2024-01-30T08:20:48;102364.72;;;6.13;100.00
72285;BME280;60220;53.552;10.092;2024-01-30T08:23:16;102366.16;;;5.77;100.00
72285;BME280;60220;53.552;10.092;2024-01-30T08:25:43;102363.56;;;5.78;100.00
72285;BME280;60220;53.552;10.092;2024-01-30T08:28:09;102365.44;;;5.55;100.00
72285;BME280;60220;53.552;10.092;2024-01-30T08:30:36;102373.75;;;5.96;100.00
72285;BME280;60220;53.552;10.092;2024-01-30T08:33:04;102372.78;;;5.92;100.00
72285;BME280;60220;53.552;10.092;2024-01-30T08:35:31;102375.47;;;5.70;100.00
72285;BME280;60220;53.552;10.092;2024-01-30T08:37:58;102365.66;;;5.87;100.00
72285;BME280;60220;53.552;10.092;2024-01-30T08:40:26;102352.69;;;5.90;100.00
72285;BME280;60220;53.552;10.092;2024-01-30T08:42:54;102352.91;;;5.96;100.00
72285;BME280;60220;53.552;10.092;2024-01-30T08:45:20;102370.56;;;5.79;100.00
72285;BME280;60220;53.552;10.092;2024-01-30T08:47:47;102364.91;;;5.66;100.00
72285;BME280;60220;53.552;10.092;2024-01-30T08:50:14;102354.59;;;6.22;100.00
72285;BME280;60220;53.552;10.092;2024-01-30T08:52:41;102346.00;;;6.55;100.00
72285;BME280;60220;53.552;10.092;2024-01-30T08:55:07;102338.00;;;6.80;100.00
72285;BME280;60220;53.552;10.092;2024-01-30T08:57:36;102338.91;;;6.51;100.00
72285;BME280;60220;53.552;10.092;2024-01-30T09:00:03;102330.53;;;6.61;100.00
72285;BME280;60220;53.552;10.092;2024-01-30T09:02:32;102320.47;;;6.44;100.00
72285;BME280;60220;53.552;10.092;2024-01-30T09:04:58;102323.28;;;6.51;100.00
72285;BME280;60220;53.552;10.092;2024-01-30T09:07:27;102314.88;;;6.61;100.00
72285;BME280;60220;53.552;10.092;2024-01-30T09:09:56;102322.69;;;6.92;100.00
72285;BME280;60220;53.552;10.092;2024-01-30T09:12:23;102310.06;;;6.76;100.00
72285;BME280;60220;53.552;10.092;2024-01-30T09:14:53;102318.81;;;6.78;100.00
72285;BME280;60220;53.552;10.092;2024-01-30T09:17:20;102313.88;;;6.87;100.00
72285;BME280;60220;53.552;10.092;2024-01-30T09:19:47;102306.56;;;6.75;100.00
72285;BME280;60220;53.552;10.092;2024-01-30T09:22:13;102317.78;;;6.41;100.00
72285;BME280;60220;53.552;10.092;2024-01-30T09:24:40;102325.34;;;6.62;100.00
72285;BME280;60220;53.552;10.092;2024-01-30T09:27:07;102326.19;;;6.61;100.00
72285;BME280;60220;53.552;10.092;2024-01-30T09:29:33;102328.91;;;6.66;100.00
72285;BME280;60220;53.552;10.092;2024-01-30T09:32:06;102329.41;;;6.84;100.00
72285;BME280;60220;53.552;10.092;2024-01-30T09:34:34;102338.66;;;6.71;100.00
72285;BME280;60220;53.552;10.092;2024-01-30T09:37:01;102338.78;;;7.07;100.00
72285;BME280;60220;53.552;10.092;2024-01-30T09:39:27;102342.75;;;6.63;100.00
72285;BME280;60220;53.552;10.092;2024-01-30T09:41:59;102346.47;;;6.41;100.00
72285;BME280;60220;53.552;10.092;2024-01-30T09:44:28;102353.59;;;6.47;100.00
72285;BME280;60220;53.552;10.092;2024-01-30T09:46:55;102355.13;;;6.40;100.00
72285;BME280;60220;53.552;10.092;2024-01-30T09:49:25;102357.50;;;6.63;100.00
72285;BME280;60220;53.552;10.092;2024-01-30T09:51:55;102348.53;;;6.53;100.00
72285;BME280;60220;53.552;10.092;2024-01-30T09:54:24;102353.72;;;6.81;100.00
72285;BME280;60220;53.552;10.092;2024-01-30T09:56:51;102342.06;;;7.00;100.00
72285;BME280;60220;53.552;10.092;2024-01-30T09:59:17;102336.75;;;6.97;100.00
72285;BME280;60220;53.552;10.092;2024-01-30T10:01:44;102326.63;;;7.09;100.00
72285;BME280;60220;53.552;10.092;2024-01-30T10:04:11;102330.47;;;7.23;100.00
72285;BME280;60220;53.552;10.092;2024-01-30T10:06:40;102325.25;;;7.23;100.00
72285;BME280;60220;53.552;10.092;2024-01-30T10:09:07;102322.56;;;7.55;100.00
72285;BME280;60220;53.552;10.092;2024-01-30T10:11:34;102314.81;;;7.23;100.00
72285;BME280;60220;53.552;10.092;2024-01-30T10:14:01;102306.78;;;7.16;100.00
72285;BME280;60220;53.552;10.092;2024-01-30T10:16:28;102305.69;;;7.41;100.00
72285;BME280;60220;53.552;10.092;2024-01-30T10:18:54;102299.22;;;7.62;100.00
72285;BME280;60220;53.552;10.092;2024-01-30T10:21:21;102287.25;;;7.70;100.00
72285;BME280;60220;53.552;10.092;2024-01-30T10:23:49;102300.00;;;7.94;100.00
72285;BME280;60220;53.552;10.092;2024-01-30T10:26:16;102300.72;;;8.26;100.00
72285;BME280;60220;53.552;10.092;2024-01-30T10:28:43;102297.03;;;8.18;100.00
72285;BME280;60220;53.552;10.092;2024-01-30T10:31:16;102303.09;;;8.15;100.00
72285;BME280;60220;53.552;10.092;2024-01-30T10:33:45;102299.72;;;8.22;100.00
72285;BME280;60220;53.552;10.092;2024-01-30T10:36:13;102298.44;;;8.43;100.00
72285;BME280;60220;53.552;10.092;2024-01-30T10:38:42;102288.50;;;8.27;100.00
72285;BME280;60220;53.552;10.092;2024-01-30T10:41:13;102289.28;;;8.63;100.00
72285;BME280;60220;53.552;10.092;2024-01-30T10:43:50;102286.66;;;9.10;100.00
72285;BME280;60220;53.552;10.092;2024-01-30T10:46:18;102290.50;;;8.80;100.00
72285;BME280;60220;53.552;10.092;2024-01-30T10:48:50;102284.19;;;8.72;100.00
72285;BME280;60220;53.552;10.092;2024-01-30T10:51:20;102292.78;;;8.23;100.00
72285;BME280;60220;53.552;10.092;2024-01-30T10:53:49;102288.25;;;8.55;100.00
72285;BME280;60220;53.552;10.092;2024-01-30T10:56:18;102289.72;;;8.41;100.00
72285;BME280;60220;53.552;10.092;2024-01-30T10:58:47;102279.13;;;8.80;100.00
72285;BME280;60220;53.552;10.092;2024-01-30T11:01:14;102286.44;;;8.51;100.00
72285;BME280;60220;53.552;10.092;2024-01-30T11:03:44;102279.13;;;8.80;100.00
72285;BME280;60220;53.552;10.092;2024-01-30T11:06:11;102274.22;;;8.96;100.00
72285;BME280;60220;53.552;10.092;2024-01-30T11:08:39;102278.41;;;8.88;100.00
72285;BME280;60220;53.552;10.092;2024-01-30T11:11:09;102275.94;;;8.96;100.00
72285;BME280;60220;53.552;10.092;2024-01-30T11:13:37;102280.72;;;9.20;100.00
72285;BME280;60220;53.552;10.092;2024-01-30T11:16:05;102278.78;;;8.63;100.00
72285;BME280;60220;53.552;10.092;2024-01-30T11:18:33;102285.03;;;8.70;100.00
72285;BME280;60220;53.552;10.092;2024-01-30T11:21:04;102284.00;;;9.08;100.00
72285;BME280;60220;53.552;10.092;2024-01-30T11:23:34;102281.50;;;9.14;100.00
72285;BME280;60220;53.552;10.092;2024-01-30T11:26:03;102270.91;;;9.62;100.00
72285;BME280;60220;53.552;10.092;2024-01-30T11:28:33;102274.69;;;9.24;100.00
72285;BME280;60220;53.552;10.092;2024-01-30T11:31:05;102265.00;;;9.20;100.00
72285;BME280;60220;53.552;10.092;2024-01-30T11:33:33;102264.44;;;9.39;100.00
72285;BME280;60220;53.552;10.092;2024-01-30T11:36:01;102256.28;;;9.78;100.00
72285;BME280;60220;53.552;10.092;2024-01-30T11:38:28;102265.75;;;9.65;100.00
72285;BME280;60220;53.552;10.092;2024-01-30T11:40:55;102265.44;;;9.47;100.00
72285;BME280;60220;53.552;10.092;2024-01-30T11:43:24;102261.72;;;9.31;100.00
72285;BME280;60220;53.552;10.092;2024-01-30T11:45:51;102258.59;;;9.55;100.00
72285;BME280;60220;53.552;10.092;2024-01-30T11:48:21;102257.78;;;9.59;100.00
72285;BME280;60220;53.552;10.092;2024-01-30T11:50:48;102256.94;;;9.60;100.00
72285;BME280;60220;53.552;10.092;2024-01-30T11:53:19;102261.16;;;9.50;100.00
72285;BME280;60220;53.552;10.092;2024-01-30T11:55:49;102252.34;;;9.47;100.00
72285;BME280;60220;53.552;10.092;2024-01-30T11:58:16;102261.47;;;9.73;100.00
72285;BME280;60220;53.552;10.092;2024-01-30T12:00:43;102259.88;;;9.83;100.00
72285;BME280;60220;53.552;10.092;2024-01-30T12:03:11;102251.78;;;9.66;100.00
72285;BME280;60220;53.552;10.092;2024-01-30T12:05:41;102256.34;;;9.79;100.00
72285;BME280;60220;53.552;10.092;2024-01-30T12:08:15;102242.31;;;10.42;100.00
72285;BME280;60220;53.552;10.092;2024-01-30T12:10:41;102243.78;;;10.19;100.00
72285;BME280;60220;53.552;10.092;2024-01-30T12:13:08;102237.00;;;10.36;100.00
72285;BME280;60220;53.552;10.092;2024-01-30T12:15:35;102247.44;;;11.17;100.00
72285;BME280;60220;53.552;10.092;2024-01-30T12:18:06;102244.47;;;10.79;100.00
72285;BME280;60220;53.552;10.092;2024-01-30T12:20:33;102238.69;;;11.18;100.00
72285;BME280;60220;53.552;10.092;2024-01-30T12:23:01;102244.56;;;10.89;100.00
72285;BME280;60220;53.552;10.092;2024-01-30T12:25:27;102238.72;;;11.21;100.00
72285;BME280;60220;53.552;10.092;2024-01-30T12:27:57;102228.47;;;11.55;100.00
72285;BME280;60220;53.552;10.092;2024-01-30T12:30:24;102236.53;;;11.78;100.00
72285;BME280;60220;53.552;10.092;2024-01-30T12:32:51;102232.97;;;10.68;100.00
72285;BME280;60220;53.552;10.092;2024-01-30T12:35:19;102233.38;;;10.25;100.00
72285;BME280;60220;53.552;10.092;2024-01-30T12:37:46;102212.72;;;10.55;100.00
72285;BME280;60220;53.552;10.092;2024-01-30T12:40:15;102232.75;;;10.49;100.00
72285;BME280;60220;53.552;10.092;2024-01-30T12:42:42;102223.94;;;10.41;100.00